Time;durP1;ratioP1;P1;durP2;ratioP2;P2;SDS_P1;SDS_P2;PMS_P1;PMS_P2;Temp;Humidity;BMP_temperature;BMP_pressure;BME280_temperature;BME280_humidity;BME280_pressure;Samples;Min_cycle;Max_cycle;Signal;HPM_P1;HPM_P2
2022/05/21 00:01:49;;;;;;;1.00;1.00;;;19.90;99.90;;;;;;5020257;28;20251;-64
2022/05/21 00:04:16;;;;;;;0.80;0.80;;;19.60;99.90;;;;;;5029917;28;20228;-63
2022/05/21 00:06:44;;;;;;;0.90;0.90;;;19.50;99.90;;;;;;5000790;28;20296;-65
2022/05/21 00:09:12;;;;;;;0.90;0.90;;;19.40;99.90;;;;;;5006207;28;20645;-65
2022/05/21 00:11:39;;;;;;;0.77;0.77;;;19.40;99.90;;;;;;5001734;28;20312;-64
2022/05/21 00:14:07;;;;;;;1.00;1.00;;;19.30;99.90;;;;;;5001203;28;20287;-63
2022/05/21 00:16:34;;;;;;;0.70;0.70;;;19.30;99.90;;;;;;5005026;28;20779;-64
2022/05/21 00:19:01;;;;;;;0.70;0.70;;;19.30;99.90;;;;;;5010872;28;20209;-64
2022/05/21 00:21:28;;;;;;;0.73;0.73;;;19.30;99.90;;;;;;5009161;28;20332;-63
2022/05/21 00:23:56;;;;;;;0.70;0.70;;;19.20;99.90;;;;;;5008448;28;20300;-64
2022/05/21 00:26:25;;;;;;;0.80;0.80;;;19.30;99.90;;;;;;5011294;28;20205;-63
2022/05/21 00:28:52;;;;;;;0.77;0.77;;;19.20;99.90;;;;;;5011435;28;20202;-64
2022/05/21 00:31:20;;;;;;;0.82;0.82;;;19.20;99.90;;;;;;5009014;28;20304;-63
2022/05/21 00:33:47;;;;;;;0.77;0.77;;;19.20;99.90;;;;;;5011645;28;20620;-64
2022/05/21 00:36:15;;;;;;;1.00;1.00;;;19.20;99.90;;;;;;5011647;28;20227;-63
2022/05/21 00:38:42;;;;;;;1.10;1.10;;;19.20;99.90;;;;;;5012174;28;20201;-65
2022/05/21 00:41:12;;;;;;;1.17;1.00;;;19.00;99.90;;;;;;5011403;28;20256;-64
2022/05/21 00:43:47;;;;;;;0.90;0.90;;;18.90;99.90;;;;;;5012043;28;20225;-63
2022/05/21 00:46:16;;;;;;;1.00;0.93;;;18.80;99.90;;;;;;5011379;28;20216;-63
2022/05/21 00:48:44;;;;;;;0.93;0.93;;;18.70;99.90;;;;;;5010599;28;20206;-63
2022/05/21 00:51:15;;;;;;;0.90;0.90;;;18.60;99.90;;;;;;5010913;28;20245;-64
2022/05/21 00:53:46;;;;;;;0.70;0.70;;;18.60;99.90;;;;;;5011896;28;20316;-63
2022/05/21 00:56:17;;;;;;;0.75;0.75;;;18.50;99.90;;;;;;5011672;28;20309;-63
2022/05/21 01:01:35;;;;;;;0.82;0.82;;;18.30;99.90;;;;;;5011244;28;20239;-63
2022/05/21 01:04:02;;;;;;;0.80;0.80;;;18.30;99.90;;;;;;5011491;28;20285;-65
2022/05/21 01:06:30;;;;;;;0.77;0.77;;;18.30;99.90;;;;;;5011699;28;20209;-63
2022/05/21 01:08:57;;;;;;;0.90;0.90;;;18.20;99.90;;;;;;5011605;28;20221;-63
2022/05/21 01:11:25;;;;;;;3.22;0.80;;;18.10;99.90;;;;;;5010936;28;20235;-64
2022/05/21 01:13:52;;;;;;;0.88;0.88;;;17.90;99.90;;;;;;5011704;28;20254;-64
2022/05/21 01:16:19;;;;;;;0.80;0.80;;;17.80;99.90;;;;;;5011480;28;20300;-64
2022/05/21 01:18:47;;;;;;;0.80;0.80;;;17.70;99.90;;;;;;5011945;28;20742;-63
2022/05/21 01:21:14;;;;;;;0.80;0.80;;;17.60;99.90;;;;;;5010534;28;20230;-64
2022/05/21 01:23:42;;;;;;;0.90;0.90;;;17.60;99.90;;;;;;5011692;28;20683;-64
2022/05/21 01:26:14;;;;;;;0.63;0.63;;;17.60;99.90;;;;;;5011356;28;20291;-63
2022/05/21 01:28:41;;;;;;;0.70;0.70;;;17.50;99.90;;;;;;5013636;28;20298;-65
2022/05/21 01:31:09;;;;;;;0.70;0.70;;;17.50;99.90;;;;;;5014192;28;20607;-63
2022/05/21 01:33:41;;;;;;;0.70;0.70;;;17.60;99.90;;;;;;5014780;28;20312;-63
2022/05/21 01:36:09;;;;;;;0.52;0.52;;;17.60;99.90;;;;;;5010773;28;20673;-63
2022/05/21 01:38:38;;;;;;;0.52;0.52;;;17.60;99.90;;;;;;5014966;28;20215;-63
2022/05/21 01:41:07;;;;;;;0.70;0.70;;;17.60;99.90;;;;;;5013955;28;20316;-63
2022/05/21 01:46:20;;;;;;;0.60;0.60;;;17.60;99.90;;;;;;5030166;28;20218;-62
2022/05/21 01:48:47;;;;;;;0.80;0.80;;;17.50;99.90;;;;;;5028267;28;20224;-64
2022/05/21 01:51:14;;;;;;;0.75;0.75;;;17.40;99.90;;;;;;5049122;22;20224;-62
2022/05/21 01:53:43;;;;;;;0.70;0.70;;;17.30;99.90;;;;;;5072800;28;20318;-64
2022/05/21 01:56:12;;;;;;;0.80;0.80;;;17.30;99.90;;;;;;5073527;28;20687;-64
2022/05/21 01:58:39;;;;;;;1.13;0.80;;;17.30;99.90;;;;;;5073812;28;20245;-64
2022/05/21 02:01:08;;;;;;;2.45;0.80;;;17.20;99.90;;;;;;5073456;28;20235;-64
2022/05/21 02:03:35;;;;;;;0.82;0.82;;;17.10;99.90;;;;;;5072487;28;20211;-63
2022/05/21 02:06:02;;;;;;;0.68;0.68;;;17.10;99.90;;;;;;5053855;28;20203;-63
2022/05/21 02:08:29;;;;;;;0.63;0.63;;;17.00;99.90;;;;;;5053790;28;20238;-62
2022/05/21 02:10:56;;;;;;;0.80;0.80;;;17.00;99.90;;;;;;5053794;28;20230;-63
2022/05/21 02:13:26;;;;;;;0.82;0.82;;;17.00;99.90;;;;;;5052569;28;20298;-64
2022/05/21 02:15:54;;;;;;;0.82;0.82;;;17.00;99.90;;;;;;5053457;28;20204;-63
2022/05/21 02:18:21;;;;;;;0.88;0.88;;;16.90;99.90;;;;;;5059271;28;20295;-63
2022/05/21 02:20:48;;;;;;;0.70;0.70;;;16.90;99.90;;;;;;5073362;28;20227;-65
2022/05/21 02:23:16;;;;;;;0.80;0.80;;;16.90;99.90;;;;;;5072614;28;20206;-62
2022/05/21 02:25:44;;;;;;;0.80;0.80;;;17.00;99.90;;;;;;5073210;28;20294;-63
2022/05/21 02:28:12;;;;;;;0.68;0.63;;;16.90;99.90;;;;;;5053637;28;20691;-62
2022/05/21 02:30:41;;;;;;;0.55;0.55;;;17.00;99.90;;;;;;5053230;28;20237;-63
2022/05/21 02:33:08;;;;;;;0.80;0.80;;;16.90;99.90;;;;;;5052616;28;20216;-62
2022/05/21 02:35:35;;;;;;;0.73;0.73;;;16.90;99.90;;;;;;5053153;28;20234;-62
2022/05/21 02:40:46;;;;;;;0.60;0.60;;;16.70;99.90;;;;;;5053147;28;20593;-62
2022/05/21 02:43:13;;;;;;;0.73;0.73;;;16.60;99.90;;;;;;5052108;28;20204;-63
2022/05/21 02:45:41;;;;;;;0.88;0.88;;;16.50;99.90;;;;;;5052798;28;20196;-63
2022/05/21 02:48:08;;;;;;;0.80;0.80;;;16.40;99.90;;;;;;5051713;28;20208;-62
2022/05/21 02:50:36;;;;;;;0.73;0.73;;;16.40;99.90;;;;;;5052513;28;20310;-61
2022/05/21 02:53:04;;;;;;;0.75;0.75;;;16.40;99.90;;;;;;5052046;28;20294;-64
2022/05/21 02:55:31;;;;;;;0.70;0.70;;;16.50;99.90;;;;;;5053135;28;20354;-62
2022/05/21 02:57:58;;;;;;;0.80;0.80;;;16.50;99.90;;;;;;5052967;28;20204;-63
2022/05/21 03:00:27;;;;;;;0.80;0.80;;;16.50;99.90;;;;;;5052674;28;20228;-61
2022/05/21 03:02:57;;;;;;;0.80;0.80;;;16.50;99.90;;;;;;5051880;28;20287;-64
2022/05/21 03:05:25;;;;;;;0.68;0.68;;;16.40;99.90;;;;;;5052506;28;20203;-64
2022/05/21 03:07:53;;;;;;;1.02;1.02;;;16.40;99.90;;;;;;5052756;28;20208;-62
2022/05/21 03:10:21;;;;;;;0.77;0.77;;;16.30;99.90;;;;;;5052830;28;20774;-63
2022/05/21 03:12:49;;;;;;;0.98;0.73;;;16.30;99.90;;;;;;5052430;28;20196;-61
2022/05/21 03:15:16;;;;;;;0.75;0.75;;;16.20;99.90;;;;;;5052591;28;20578;-63
2022/05/21 03:17:43;;;;;;;0.70;0.70;;;16.20;99.90;;;;;;5056971;28;20210;-62
2022/05/21 03:20:13;;;;;;;0.90;0.90;;;16.20;99.90;;;;;;5074034;28;20306;-62
2022/05/21 03:22:40;;;;;;;0.80;0.80;;;16.20;99.90;;;;;;5054933;28;20204;-62
2022/05/21 03:25:08;;;;;;;1.17;0.80;;;16.20;99.90;;;;;;5070588;28;20290;-62
2022/05/21 03:27:35;;;;;;;0.80;0.80;;;16.10;99.90;;;;;;5058774;28;20670;-63
2022/05/21 03:30:02;;;;;;;0.80;0.80;;;16.10;99.90;;;;;;5053515;28;20761;-64
2022/05/21 03:32:29;;;;;;;0.60;0.60;;;16.10;99.90;;;;;;5052835;28;20704;-62
2022/05/21 03:34:56;;;;;;;0.75;0.75;;;16.10;99.90;;;;;;5053304;28;20692;-64
2022/05/21 03:37:24;;;;;;;0.70;0.70;;;16.10;99.90;;;;;;5053457;28;20242;-62
2022/05/21 03:39:51;;;;;;;0.90;0.90;;;16.00;99.90;;;;;;5053251;28;20658;-63
2022/05/21 03:42:19;;;;;;;0.90;0.90;;;15.90;99.90;;;;;;5052963;28;20215;-63
2022/05/21 03:44:46;;;;;;;0.80;0.80;;;15.90;99.90;;;;;;5053219;28;20184;-62
2022/05/21 03:47:13;;;;;;;0.65;0.63;;;15.90;99.90;;;;;;5052785;28;20204;-64
2022/05/21 03:49:40;;;;;;;1.67;0.90;;;15.90;99.90;;;;;;5051919;28;20296;-63
2022/05/21 03:52:07;;;;;;;0.50;0.50;;;15.90;99.90;;;;;;5051908;28;20208;-63
2022/05/21 03:54:36;;;;;;;0.75;0.75;;;16.10;99.90;;;;;;5053399;28;20303;-62
2022/05/21 03:57:05;;;;;;;0.70;0.70;;;16.10;99.90;;;;;;5052742;28;20212;-63
2022/05/21 03:59:32;;;;;;;0.80;0.80;;;16.10;99.90;;;;;;5052891;28;20204;-63
2022/05/21 04:01:59;;;;;;;1.05;0.88;;;16.10;99.90;;;;;;5052937;28;20643;-63
2022/05/21 04:04:26;;;;;;;0.90;0.90;;;16.10;99.90;;;;;;5053722;28;20286;-62
2022/05/21 04:06:53;;;;;;;0.80;0.80;;;16.30;99.90;;;;;;5054221;28;20212;-63
2022/05/21 04:09:20;;;;;;;0.85;0.85;;;16.20;99.90;;;;;;5053162;28;20299;-62
2022/05/21 04:11:48;;;;;;;0.60;0.60;;;16.20;99.90;;;;;;5052388;28;20231;-63
2022/05/21 04:14:15;;;;;;;1.45;0.80;;;16.20;99.90;;;;;;5053542;28;20208;-62
2022/05/21 04:16:42;;;;;;;0.70;0.70;;;16.20;99.90;;;;;;5052304;28;20299;-62
2022/05/21 04:19:10;;;;;;;0.70;0.70;;;16.10;99.90;;;;;;5052264;28;20211;-63
2022/05/21 04:21:37;;;;;;;0.90;0.90;;;16.00;99.90;;;;;;5051953;28;20235;-63
2022/05/21 04:24:05;;;;;;;1.10;0.75;;;16.00;99.90;;;;;;5052177;28;20247;-62
2022/05/21 04:26:32;;;;;;;0.93;0.93;;;16.00;99.90;;;;;;5052707;28;20208;-63
2022/05/21 04:29:00;;;;;;;0.70;0.70;;;16.00;99.90;;;;;;5053003;28;20231;-64
2022/05/21 04:31:27;;;;;;;1.20;1.10;;;16.00;99.90;;;;;;5052290;28;20223;-61
2022/05/21 04:33:54;;;;;;;0.90;0.90;;;16.10;99.90;;;;;;5053514;28;20291;-62
2022/05/21 04:36:22;;;;;;;0.88;0.88;;;16.10;99.90;;;;;;5053100;28;20259;-62
2022/05/21 04:38:52;;;;;;;0.60;0.60;;;16.20;99.90;;;;;;5052507;28;20281;-61
2022/05/21 04:41:19;;;;;;;0.70;0.70;;;16.20;99.90;;;;;;5052763;28;20231;-63
2022/05/21 04:43:46;;;;;;;0.70;0.70;;;16.20;99.90;;;;;;5053074;28;20200;-64
2022/05/21 04:46:16;;;;;;;0.90;0.90;;;16.30;99.90;;;;;;5061501;28;20613;-62
2022/05/21 04:48:42;;;;;;;0.80;0.80;;;16.40;99.90;;;;;;5061955;28;20230;-61
2022/05/21 04:51:10;;;;;;;0.70;0.70;;;16.40;99.90;;;;;;5068887;28;20262;-61
2022/05/21 04:53:37;;;;;;;0.82;0.82;;;16.50;99.90;;;;;;5072992;28;20748;-63
2022/05/21 04:56:05;;;;;;;0.60;0.60;;;16.50;99.90;;;;;;5072482;28;20268;-62
2022/05/21 04:58:32;;;;;;;0.60;0.60;;;16.60;99.90;;;;;;5072971;28;20268;-63
2022/05/21 05:01:00;;;;;;;0.90;0.90;;;16.70;99.90;;;;;;5072237;28;20230;-62
2022/05/21 05:03:28;;;;;;;0.80;0.80;;;16.80;99.90;;;;;;5072248;28;20404;-62
2022/05/21 05:05:55;;;;;;;0.80;0.80;;;16.80;99.90;;;;;;5055156;28;20276;-62
2022/05/21 05:08:23;;;;;;;1.02;0.93;;;16.80;99.90;;;;;;5058923;28;20219;-62
2022/05/21 05:10:51;;;;;;;0.82;0.82;;;16.80;99.90;;;;;;5059047;28;20240;-62
2022/05/21 05:13:18;;;;;;;0.85;0.85;;;16.80;99.90;;;;;;5054956;28;20199;-62
2022/05/21 05:15:46;;;;;;;0.70;0.70;;;16.90;99.90;;;;;;5054998;28;20256;-62
2022/05/21 05:18:17;;;;;;;0.73;0.73;;;17.00;99.90;;;;;;5055026;28;20708;-62
2022/05/21 05:20:46;;;;;;;0.70;0.68;;;17.00;99.90;;;;;;5053684;28;20603;-61
2022/05/21 05:23:13;;;;;;;0.95;0.85;;;17.00;99.90;;;;;;5054595;28;20204;-62
2022/05/21 05:25:40;;;;;;;0.75;0.75;;;17.00;99.90;;;;;;5055493;28;20287;-63
2022/05/21 05:28:15;;;;;;;0.55;0.55;;;17.00;99.90;;;;;;5054896;28;20290;-61
2022/05/21 05:30:42;;;;;;;0.65;0.65;;;17.00;99.90;;;;;;5054957;28;20238;-61
2022/05/21 05:33:09;;;;;;;0.80;0.80;;;17.10;99.90;;;;;;5053829;28;20762;-61
2022/05/21 05:35:36;;;;;;;0.82;0.80;;;17.30;99.90;;;;;;5054795;28;20235;-58
2022/05/21 05:38:07;;;;;;;1.08;1.00;;;17.80;99.90;;;;;;5054561;28;20257;-58
2022/05/21 05:40:35;;;;;;;0.70;0.70;;;18.10;99.90;;;;;;5054616;28;20312;-58
2022/05/21 05:43:02;;;;;;;1.00;1.00;;;18.40;99.90;;;;;;5053836;28;20295;-58
2022/05/21 05:45:29;;;;;;;1.10;0.90;;;18.50;99.90;;;;;;5054727;28;20204;-58
2022/05/21 05:47:56;;;;;;;0.90;0.90;;;18.80;99.90;;;;;;5054532;28;20208;-58
2022/05/21 05:50:23;;;;;;;1.10;1.10;;;18.80;99.90;;;;;;5052851;28;20232;-58
2022/05/21 05:52:50;;;;;;;0.90;0.90;;;18.90;99.90;;;;;;5053883;28;20238;-58
2022/05/21 05:55:18;;;;;;;1.00;1.00;;;19.00;99.90;;;;;;5054145;28;20668;-58
2022/05/21 05:57:50;;;;;;;1.08;1.08;;;19.10;99.90;;;;;;5054630;28;20200;-59
2022/05/21 06:00:17;;;;;;;0.82;0.82;;;19.20;99.90;;;;;;5054271;28;20224;-59
2022/05/21 06:03:01;;;;;;;0.93;0.93;;;19.40;99.90;;;;;;5053587;28;20662;-58
2022/05/21 06:05:30;;;;;;;0.77;0.77;;;19.30;99.90;;;;;;5054478;28;20204;-60
2022/05/21 06:07:59;;;;;;;0.80;0.80;;;19.20;99.90;;;;;;5054836;28;20302;-58
2022/05/21 06:10:30;;;;;;;1.05;1.00;;;19.20;99.90;;;;;;5054619;28;20286;-58
2022/05/21 06:12:58;;;;;;;1.00;1.00;;;19.40;99.90;;;;;;5053641;28;20284;-63
2022/05/21 06:15:26;;;;;;;0.90;0.90;;;19.20;99.90;;;;;;5053353;28;20226;-63
2022/05/21 06:17:53;;;;;;;0.90;0.90;;;19.20;99.90;;;;;;5053724;28;20208;-63
2022/05/21 06:20:22;;;;;;;0.70;0.70;;;19.30;99.90;;;;;;5052946;28;20232;-64
2022/05/21 06:22:49;;;;;;;1.00;1.00;;;19.50;99.90;;;;;;5053197;28;20667;-63
2022/05/21 06:25:18;;;;;;;0.70;0.70;;;19.70;99.90;;;;;;5053642;28;20662;-63
2022/05/21 06:27:48;;;;;;;0.50;0.50;;;19.80;99.90;;;;;;5053949;28;20282;-63
2022/05/21 06:30:16;;;;;;;0.70;0.70;;;19.80;99.90;;;;;;5054335;28;20640;-64
2022/05/21 06:32:43;;;;;;;0.93;0.93;;;19.80;99.90;;;;;;5053114;28;20740;-64
2022/05/21 06:35:11;;;;;;;0.77;0.77;;;19.50;99.90;;;;;;5053900;28;20694;-64
2022/05/21 06:37:38;;;;;;;1.02;0.90;;;19.20;99.90;;;;;;5053397;28;20298;-64
2022/05/21 06:40:07;;;;;;;0.80;0.80;;;19.40;99.90;;;;;;5053740;28;20224;-64
2022/05/21 06:42:34;;;;;;;0.90;0.90;;;19.30;99.90;;;;;;5050726;28;20208;-64
2022/05/21 06:45:03;;;;;;;0.70;0.70;;;19.40;99.90;;;;;;5053532;28;20230;-63
2022/05/21 06:47:30;;;;;;;0.80;0.80;;;19.10;99.90;;;;;;5053268;28;20204;-62
2022/05/21 06:49:58;;;;;;;0.80;0.80;;;19.30;99.90;;;;;;5052700;28;20259;-65
2022/05/21 06:52:26;;;;;;;0.70;0.70;;;19.20;99.90;;;;;;5052963;28;20250;-64
2022/05/21 06:54:53;;;;;;;0.60;0.60;;;19.30;99.90;;;;;;5053488;28;20246;-63
2022/05/21 06:57:21;;;;;;;0.95;0.80;;;19.50;99.90;;;;;;5053356;28;20246;-63
2022/05/21 06:59:48;;;;;;;0.80;0.80;;;19.70;99.90;;;;;;5053032;28;20301;-62
2022/05/21 07:02:16;;;;;;;0.95;0.73;;;19.90;99.90;;;;;;5052728;28;20299;-62
2022/05/21 07:07:43;;;;;;;0.77;0.77;;;20.20;99.90;;;;;;5052982;28;20195;-63
2022/05/21 07:10:13;;;;;;;0.55;0.55;;;20.00;99.90;;;;;;5052923;28;20227;-62
2022/05/21 07:12:40;;;;;;;0.75;0.75;;;19.90;99.90;;;;;;5052018;28;20638;-62
2022/05/21 07:15:08;;;;;;;0.65;0.65;;;19.80;99.90;;;;;;5053055;28;20578;-65
2022/05/21 07:17:36;;;;;;;0.50;0.50;;;19.90;99.90;;;;;;5052860;28;20211;-65
2022/05/21 07:20:06;;;;;;;0.73;0.73;;;19.90;99.90;;;;;;5051760;28;20310;-63
2022/05/21 07:22:34;;;;;;;0.85;0.73;;;20.00;99.90;;;;;;5051950;28;20693;-63
2022/05/21 07:25:02;;;;;;;0.77;0.77;;;19.90;99.90;;;;;;5052401;28;20200;-62
2022/05/21 07:27:29;;;;;;;0.70;0.70;;;20.10;99.90;;;;;;5052506;28;20295;-63
2022/05/21 07:29:56;;;;;;;0.77;0.77;;;20.20;99.90;;;;;;5052301;28;20230;-65
2022/05/21 07:32:24;;;;;;;0.80;0.80;;;20.20;99.90;;;;;;5051826;28;20748;-65
2022/05/21 07:34:58;;;;;;;0.90;0.90;;;20.30;99.90;;;;;;5053009;28;20291;-66
2022/05/21 07:37:25;;;;;;;0.90;0.90;;;20.30;99.90;;;;;;5052997;28;20554;-65
2022/05/21 07:39:52;;;;;;;0.75;0.75;;;20.40;99.90;;;;;;5052830;28;20224;-62
2022/05/21 07:42:19;;;;;;;0.68;0.68;;;20.40;99.90;;;;;;5051699;28;20295;-64
2022/05/21 07:44:46;;;;;;;0.73;0.73;;;20.30;99.90;;;;;;5052434;28;20238;-62
2022/05/21 07:47:13;;;;;;;0.80;0.80;;;20.20;99.90;;;;;;5052483;28;20200;-64
2022/05/21 07:49:40;;;;;;;0.65;0.65;;;20.30;99.90;;;;;;5051166;28;20208;-63
2022/05/21 07:52:09;;;;;;;0.50;0.50;;;20.40;99.90;;;;;;5054529;22;20323;-63
2022/05/21 07:54:36;;;;;;;0.60;0.60;;;20.50;99.90;;;;;;5046419;28;20212;-63
2022/05/21 07:57:04;;;;;;;0.70;0.70;;;20.50;99.90;;;;;;5032944;28;20263;-64
2022/05/21 07:59:32;;;;;;;0.63;0.63;;;20.50;99.90;;;;;;5033647;28;20239;-63
2022/05/21 08:02:00;;;;;;;0.60;0.60;;;20.30;99.90;;;;;;5036542;28;20335;-65
2022/05/21 08:04:28;;;;;;;0.77;0.77;;;20.40;99.90;;;;;;5039341;28;20725;-63
2022/05/21 08:06:55;;;;;;;0.50;0.50;;;20.40;99.90;;;;;;5039035;28;20201;-65
2022/05/21 08:09:23;;;;;;;0.60;0.60;;;20.50;99.90;;;;;;5039091;28;20224;-65
2022/05/21 08:11:51;;;;;;;0.70;0.70;;;20.40;99.90;;;;;;5038234;28;20224;-66
2022/05/21 08:14:18;;;;;;;0.50;0.50;;;20.70;99.90;;;;;;5037615;28;20299;-64
2022/05/21 08:16:48;;;;;;;0.60;0.60;;;20.90;99.90;;;;;;5032982;28;20231;-64
2022/05/21 08:19:15;;;;;;;0.50;0.50;;;21.10;99.90;;;;;;5041326;28;20193;-63
2022/05/21 08:21:42;;;;;;;0.40;0.40;;;20.90;99.90;;;;;;5038093;28;20229;-63
2022/05/21 08:27:01;;;;;;;0.40;0.40;;;20.90;99.90;;;;;;4987059;28;20223;-63
2022/05/21 08:29:30;;;;;;;0.70;0.70;;;21.10;99.90;;;;;;5034891;28;20240;-64
2022/05/21 08:31:58;;;;;;;0.60;0.60;;;21.30;99.90;;;;;;5031547;28;20694;-63
2022/05/21 08:34:25;;;;;;;0.40;0.40;;;21.30;99.90;;;;;;5032860;28;20274;-64
2022/05/21 08:36:53;;;;;;;0.70;0.70;;;21.40;99.90;;;;;;5030793;28;20327;-63
2022/05/21 08:39:21;;;;;;;0.40;0.40;;;21.60;99.90;;;;;;5033941;28;20254;-64
2022/05/21 08:41:53;;;;;;;0.63;0.63;;;21.70;99.90;;;;;;5029878;28;20319;-64
2022/05/21 08:44:32;;;;;;;0.70;0.70;;;21.80;99.90;;;;;;5033265;28;20231;-63
2022/05/21 08:47:09;;;;;;;1.15;0.65;;;21.70;99.90;;;;;;5034983;28;20219;-64
2022/05/21 08:49:41;;;;;;;0.70;0.70;;;21.80;99.90;;;;;;5031971;28;20254;-64
2022/05/21 08:52:15;;;;;;;0.60;0.60;;;21.90;99.90;;;;;;5038479;28;20232;-65
2022/05/21 08:54:44;;;;;;;0.60;0.60;;;22.10;99.90;;;;;;5033526;28;20215;-64
2022/05/21 08:57:17;;;;;;;0.90;0.73;;;22.30;99.90;;;;;;5038182;28;20224;-65
2022/05/21 08:59:50;;;;;;;1.10;0.60;;;22.40;99.90;;;;;;5036359;28;20642;-64
2022/05/21 09:02:20;;;;;;;0.77;0.77;;;22.40;99.90;;;;;;5035937;28;20640;-64
2022/05/21 09:04:47;;;;;;;0.70;0.70;;;22.20;99.90;;;;;;5034394;28;20267;-64
2022/05/21 09:07:20;;;;;;;0.88;0.70;;;21.90;99.90;;;;;;5034325;28;20276;-63
2022/05/21 09:09:59;;;;;;;0.85;0.80;;;22.10;99.90;;;;;;5035559;28;20208;-65
2022/05/21 09:12:40;;;;;;;0.68;0.68;;;22.10;99.90;;;;;;5043308;28;20219;-64
2022/05/21 09:15:10;;;;;;;0.50;0.50;;;22.50;99.90;;;;;;5036318;28;20204;-64
2022/05/21 09:17:42;;;;;;;0.40;0.40;;;22.50;99.90;;;;;;5048189;28;20299;-64
2022/05/21 09:20:19;;;;;;;0.60;0.60;;;22.40;99.90;;;;;;5054729;28;20629;-63
2022/05/21 09:22:54;;;;;;;0.63;0.63;;;22.50;99.90;;;;;;5036660;28;20234;-64
2022/05/21 09:25:26;;;;;;;0.55;0.55;;;22.20;99.90;;;;;;5036644;28;20197;-64
2022/05/21 09:28:02;;;;;;;0.93;0.70;;;22.20;99.90;;;;;;5038011;28;20283;-65
2022/05/21 09:30:32;;;;;;;0.70;0.70;;;21.90;99.90;;;;;;5034960;28;20606;-64
2022/05/21 09:33:00;;;;;;;0.63;0.63;;;22.00;99.90;;;;;;5034082;28;20303;-63
2022/05/21 09:35:31;;;;;;;0.73;0.73;;;21.90;99.90;;;;;;5032759;28;20294;-63
2022/05/21 09:38:13;;;;;;;0.60;0.60;;;21.70;99.90;;;;;;5042833;28;20629;-64
2022/05/21 09:40:41;;;;;;;0.60;0.60;;;21.80;99.90;;;;;;5023112;28;20572;-64
2022/05/21 09:46:19;;;;;;;0.60;0.60;;;22.20;99.90;;;;;;5039195;28;20316;-65
2022/05/21 09:48:47;;;;;;;1.52;0.68;;;22.50;99.90;;;;;;5033436;28;20283;-64
2022/05/21 09:51:26;;;;;;;0.95;0.60;;;22.80;99.90;;;;;;5035867;28;20258;-65
2022/05/21 09:53:54;;;;;;;0.60;0.60;;;23.10;99.90;;;;;;5039558;28;20290;-66
2022/05/21 09:56:24;;;;;;;0.70;0.70;;;23.20;99.90;;;;;;5052070;28;20216;-65
2022/05/21 09:58:54;;;;;;;0.75;0.75;;;23.10;99.90;;;;;;5056358;28;20225;-65
2022/05/21 10:01:36;;;;;;;0.60;0.60;;;23.10;99.90;;;;;;5045438;28;20224;-64
2022/05/21 10:04:18;;;;;;;0.55;0.55;;;23.20;99.90;;;;;;5036534;28;20627;-64
2022/05/21 10:06:52;;;;;;;0.70;0.70;;;22.60;99.90;;;;;;5064212;28;20189;-64
2022/05/21 10:12:18;;;;;;;0.60;0.60;;;22.50;99.90;;;;;;5042447;28;20215;-64
2022/05/21 10:14:52;;;;;;;0.68;0.68;;;22.90;99.90;;;;;;5038806;28;20193;-66
2022/05/21 10:17:28;;;;;;;0.68;0.68;;;23.00;99.90;;;;;;5038955;28;20892;-65
2022/05/21 10:20:01;;;;;;;0.50;0.50;;;22.70;99.90;;;;;;5037695;28;20192;-65
2022/05/21 10:22:44;;;;;;;1.02;0.75;;;22.80;99.90;;;;;;5036668;28;20221;-64
2022/05/21 10:25:16;;;;;;;0.50;0.50;;;23.00;99.90;;;;;;5036418;28;20228;-64
2022/05/21 10:28:02;;;;;;;0.70;0.70;;;22.70;99.90;;;;;;5036140;28;20204;-65
2022/05/21 10:30:55;;;;;;;0.57;0.57;;;22.60;99.90;;;;;;5035437;28;20414;-64
2022/05/21 10:33:45;;;;;;;0.60;0.60;;;22.60;99.90;;;;;;5034216;28;20275;-64
2022/05/21 10:36:27;;;;;;;0.50;0.50;;;23.10;99.90;;;;;;5033286;28;20293;-65
2022/05/21 10:39:23;;;;;;;0.55;0.55;;;23.40;99.90;;;;;;5034182;28;20279;-65
2022/05/21 10:42:08;;;;;;;0.60;0.60;;;23.60;99.90;;;;;;5033144;28;20234;-65
2022/05/21 10:44:44;;;;;;;0.80;0.80;;;23.40;99.90;;;;;;5033778;28;20296;-65
2022/05/21 10:47:27;;;;;;;0.70;0.70;;;23.30;99.90;;;;;;5033546;28;20292;-64
2022/05/21 10:50:29;;;;;;;0.40;0.40;;;23.60;99.90;;;;;;5029924;28;20211;-64
2022/05/21 10:53:33;;;;;;;0.60;0.60;;;23.90;99.90;;;;;;5035169;28;20198;-64
2022/05/21 10:56:07;;;;;;;0.43;0.43;;;24.20;99.90;;;;;;5032931;28;20303;-64
2022/05/21 10:58:44;;;;;;;0.68;0.68;;;24.30;99.90;;;;;;5034807;28;20200;-64
2022/05/21 11:01:15;;;;;;;0.50;0.50;;;24.10;99.90;;;;;;5042921;28;20244;-65
2022/05/21 11:04:01;;;;;;;0.60;0.60;;;23.90;99.90;;;;;;5052939;28;20207;-63
2022/05/21 11:06:43;;;;;;;0.70;0.70;;;24.00;99.90;;;;;;5033551;28;20577;-65
2022/05/21 11:09:21;;;;;;;0.60;0.60;;;24.00;99.90;;;;;;5033341;28;20212;-63
2022/05/21 11:11:58;;;;;;;0.60;0.60;;;23.80;99.90;;;;;;5032060;28;20310;-63
2022/05/21 11:14:31;;;;;;;0.77;0.77;;;23.90;99.90;;;;;;5032939;28;20205;-64
2022/05/21 11:17:10;;;;;;;0.85;0.77;;;24.20;99.90;;;;;;5038120;28;20209;-64
2022/05/21 11:19:45;;;;;;;0.50;0.50;;;24.30;99.90;;;;;;5033136;28;20204;-64
2022/05/21 11:22:17;;;;;;;0.60;0.60;;;24.40;99.90;;;;;;5031545;28;20255;-63
2022/05/21 11:24:50;;;;;;;0.60;0.60;;;24.10;99.90;;;;;;5032412;28;20299;-63
2022/05/21 11:27:23;;;;;;;0.63;0.63;;;24.00;99.90;;;;;;5032184;28;20284;-64
2022/05/21 11:29:57;;;;;;;0.55;0.55;;;24.00;99.90;;;;;;5032054;28;20292;-64
2022/05/21 11:38:14;;;;;;;0.70;0.70;;;24.00;99.90;;;;;;5032311;28;20302;-63
2022/05/21 11:44:55;;;;;;;0.80;0.80;;;24.30;99.90;;;;;;5031542;28;20196;-63
2022/05/21 11:46:51;;;;;;;1.00;0.65;;;24.20;99.90;;;;;;5032347;28;20204;-64
2022/05/21 11:49:41;;;;;;;0.70;0.70;;;24.00;99.90;;;;;;5031977;28;20236;-63
2022/05/21 11:52:41;;;;;;;0.68;0.68;;;24.40;99.90;;;;;;5035576;28;20323;-64
2022/05/21 11:55:23;;;;;;;0.65;0.65;;;24.60;99.90;;;;;;5007797;28;20224;-64
2022/05/21 11:57:53;;;;;;;0.60;0.60;;;24.90;99.90;;;;;;5031950;28;20229;-64
2022/05/21 12:00:44;;;;;;;0.70;0.70;;;25.00;99.90;;;;;;5032423;28;20278;-64
2022/05/21 12:03:25;;;;;;;0.50;0.50;;;25.00;99.90;;;;;;5031550;28;20299;-64
2022/05/21 12:06:32;;;;;;;0.55;0.55;;;25.10;99.90;;;;;;5031675;28;20338;-64
2022/05/21 12:09:12;;;;;;;0.60;0.60;;;25.20;99.90;;;;;;5032834;28;20288;-66
2022/05/21 12:11:43;;;;;;;0.50;0.50;;;25.20;99.90;;;;;;5035401;28;20220;-64
2022/05/21 12:14:25;;;;;;;0.70;0.70;;;25.20;99.90;;;;;;5038108;28;20268;-64
2022/05/21 12:16:56;;;;;;;0.52;0.52;;;25.30;99.90;;;;;;5038119;28;20288;-64
2022/05/21 12:19:59;;;;;;;0.77;0.77;;;25.30;99.90;;;;;;5037585;28;20211;-64
2022/05/21 12:22:46;;;;;;;0.55;0.55;;;25.00;99.90;;;;;;5035165;28;20703;-64
2022/05/21 12:25:57;;;;;;;0.80;0.80;;;24.60;99.90;;;;;;5037771;28;20211;-65
2022/05/21 12:28:41;;;;;;;0.60;0.60;;;24.70;99.90;;;;;;5031588;28;20259;-64
2022/05/21 12:31:11;;;;;;;0.55;0.55;;;24.90;99.90;;;;;;5032167;28;20227;-64
2022/05/21 12:33:43;;;;;;;0.70;0.70;;;24.90;99.90;;;;;;5032537;28;20248;-64
2022/05/21 12:36:24;;;;;;;0.57;0.57;;;24.80;99.90;;;;;;5034323;28;20196;-65
2022/05/21 12:38:52;;;;;;;0.50;0.50;;;24.70;99.90;;;;;;5027660;28;20631;-69
2022/05/21 12:41:24;;;;;;;0.60;0.60;;;24.60;99.90;;;;;;5031539;28;20228;-64
2022/05/21 12:43:54;;;;;;;0.65;0.65;;;24.70;99.90;;;;;;5031353;28;20232;-64
2022/05/21 12:46:24;;;;;;;0.45;0.45;;;24.90;99.90;;;;;;5039037;28;20209;-64
2022/05/21 12:48:52;;;;;;;0.57;0.57;;;25.20;99.90;;;;;;5031192;28;20239;-64
2022/05/21 12:51:30;;;;;;;0.60;0.60;;;25.20;99.90;;;;;;5046966;28;20669;-65
2022/05/21 12:53:58;;;;;;;0.60;0.60;;;25.10;99.90;;;;;;5049544;28;20187;-65
2022/05/21 12:56:31;;;;;;;0.50;0.50;;;25.10;99.90;;;;;;5031938;28;20210;-64
2022/05/21 12:59:09;;;;;;;0.75;0.75;;;25.00;99.90;;;;;;5025656;28;20304;-64
2022/05/21 13:01:43;;;;;;;0.30;0.30;;;25.10;99.90;;;;;;5023204;28;20669;-63
2022/05/21 13:04:25;;;;;;;0.68;0.68;;;25.30;99.90;;;;;;5025896;28;20237;-65
2022/05/21 13:06:56;;;;;;;0.60;0.60;;;25.60;99.90;;;;;;5023360;28;20283;-64
2022/05/21 13:09:23;;;;;;;1.27;0.68;;;25.70;99.90;;;;;;5036738;28;20215;-65
2022/05/21 13:11:50;;;;;;;0.52;0.52;;;25.80;99.90;;;;;;5024199;28;20836;-63
2022/05/21 13:14:27;;;;;;;0.60;0.60;;;25.90;99.90;;;;;;5046055;28;20231;-66
2022/05/21 13:16:57;;;;;;;0.50;0.50;;;25.60;99.90;;;;;;5042677;28;20203;-64
2022/05/21 13:19:50;;;;;;;1.08;0.60;;;25.30;99.90;;;;;;5040979;28;20207;-62
2022/05/21 13:22:29;;;;;;;0.60;0.60;;;25.50;99.90;;;;;;5034922;28;20835;-63
2022/05/21 13:25:02;;;;;;;0.70;0.70;;;25.50;99.90;;;;;;5036187;28;20279;-64
2022/05/21 13:27:29;;;;;;;0.55;0.55;;;25.60;99.90;;;;;;5041477;28;20198;-64
2022/05/21 13:29:57;;;;;;;0.52;0.52;;;25.50;99.90;;;;;;5039073;28;20212;-64
2022/05/21 13:32:27;;;;;;;0.70;0.70;;;25.50;99.90;;;;;;5040450;28;20312;-63
2022/05/21 13:34:55;;;;;;;0.80;0.80;;;25.50;99.90;;;;;;5038674;28;20318;-63
2022/05/21 13:37:30;;;;;;;0.52;0.52;;;25.30;99.90;;;;;;5038918;28;20231;-64